sensor_id;sensor_type;location;lat;lon;timestamp;P1;durP1;ratioP1;P2;durP2;ratioP2
57321;SDS011;43159;51.006;18.224;2023-03-23T00:03:38;14.90;;;5.80;;
57321;SDS011;43159;51.006;18.224;2023-03-23T00:13:27;16.90;;;6.70;;
57321;SDS011;43159;51.006;18.224;2023-03-23T00:23:15;15.00;;;7.60;;
57321;SDS011;43159;51.006;18.224;2023-03-23T00:33:04;17.90;;;6.30;;
57321;SDS011;43159;51.006;18.224;2023-03-23T00:42:47;19.20;;;8.00;;
57321;SDS011;43159;51.006;18.224;2023-03-23T00:52:32;18.20;;;7.20;;
57321;SDS011;43159;51.006;18.224;2023-03-23T01:02:16;16.50;;;7.60;;
57321;SDS011;43159;51.006;18.224;2023-03-23T01:12:10;20.70;;;7.10;;
57321;SDS011;43159;51.006;18.224;2023-03-23T01:21:53;13.90;;;6.40;;
57321;SDS011;43159;51.006;18.224;2023-03-23T01:31:35;17.00;;;6.30;;
57321;SDS011;43159;51.006;18.224;2023-03-23T01:41:19;15.30;;;8.20;;
57321;SDS011;43159;51.006;18.224;2023-03-23T01:51:23;13.70;;;6.00;;
57321;SDS011;43159;51.006;18.224;2023-03-23T02:01:10;13.70;;;6.50;;
57321;SDS011;43159;51.006;18.224;2023-03-23T02:10:55;15.30;;;6.30;;
57321;SDS011;43159;51.006;18.224;2023-03-23T02:42:24;19.70;;;7.60;;
57321;SDS011;43159;51.006;18.224;2023-03-23T02:52:14;19.90;;;6.70;;
57321;SDS011;43159;51.006;18.224;2023-03-23T03:02:07;21.40;;;6.70;;
57321;SDS011;43159;51.006;18.224;2023-03-23T03:22:58;17.00;;;6.60;;
57321;SDS011;43159;51.006;18.224;2023-03-23T03:32:48;14.40;;;6.80;;
57321;SDS011;43159;51.006;18.224;2023-03-23T03:42:38;18.60;;;7.90;;
57321;SDS011;43159;51.006;18.224;2023-03-23T03:52:21;14.30;;;6.20;;
57321;SDS011;43159;51.006;18.224;2023-03-23T04:02:03;14.00;;;7.30;;
57321;SDS011;43159;51.006;18.224;2023-03-23T04:11:45;15.40;;;6.80;;
57321;SDS011;43159;51.006;18.224;2023-03-23T04:21:27;22.00;;;5.80;;
57321;SDS011;43159;51.006;18.224;2023-03-23T04:31:17;16.40;;;7.70;;
57321;SDS011;43159;51.006;18.224;2023-03-23T04:40:59;22.80;;;9.00;;
57321;SDS011;43159;51.006;18.224;2023-03-23T04:50:51;23.50;;;10.40;;
57321;SDS011;43159;51.006;18.224;2023-03-23T05:00:35;20.70;;;10.90;;
57321;SDS011;43159;51.006;18.224;2023-03-23T05:10:18;22.90;;;10.30;;
57321;SDS011;43159;51.006;18.224;2023-03-23T05:20:02;18.30;;;8.70;;
57321;SDS011;43159;51.006;18.224;2023-03-23T05:29:58;18.40;;;7.60;;
57321;SDS011;43159;51.006;18.224;2023-03-23T05:39:58;16.00;;;7.40;;
57321;SDS011;43159;51.006;18.224;2023-03-23T05:49:48;13.60;;;6.70;;
57321;SDS011;43159;51.006;18.224;2023-03-23T05:59:34;18.40;;;7.60;;
57321;SDS011;43159;51.006;18.224;2023-03-23T06:09:18;15.60;;;7.80;;
57321;SDS011;43159;51.006;18.224;2023-03-23T06:19:00;15.70;;;6.60;;
57321;SDS011;43159;51.006;18.224;2023-03-23T06:28:46;16.00;;;6.40;;
57321;SDS011;43159;51.006;18.224;2023-03-23T06:45:49;20.90;;;5.90;;
57321;SDS011;43159;51.006;18.224;2023-03-23T06:55:36;11.00;;;6.10;;
57321;SDS011;43159;51.006;18.224;2023-03-23T07:05:20;15.10;;;6.90;;
57321;SDS011;43159;51.006;18.224;2023-03-23T07:15:03;21.30;;;7.90;;
57321;SDS011;43159;51.006;18.224;2023-03-23T07:24:46;13.10;;;6.60;;
57321;SDS011;43159;51.006;18.224;2023-03-23T07:34:30;15.00;;;5.70;;
57321;SDS011;43159;51.006;18.224;2023-03-23T07:44:14;13.30;;;5.30;;
57321;SDS011;43159;51.006;18.224;2023-03-23T07:53:59;11.40;;;4.60;;
57321;SDS011;43159;51.006;18.224;2023-03-23T08:03:43;12.80;;;5.60;;
57321;SDS011;43159;51.006;18.224;2023-03-23T08:13:26;10.80;;;4.20;;
57321;SDS011;43159;51.006;18.224;2023-03-23T08:23:10;12.70;;;4.70;;
57321;SDS011;43159;51.006;18.224;2023-03-23T08:32:56;19.50;;;4.70;;
57321;SDS011;43159;51.006;18.224;2023-03-23T08:35:22;12.90;;;5.50;;
57321;SDS011;43159;51.006;18.224;2023-03-23T08:45:11;12.00;;;4.10;;
57321;SDS011;43159;51.006;18.224;2023-03-23T08:54:57;10.20;;;3.80;;
57321;SDS011;43159;51.006;18.224;2023-03-23T09:04:41;9.90;;;3.70;;
57321;SDS011;43159;51.006;18.224;2023-03-23T09:14:31;11.60;;;4.40;;
57321;SDS011;43159;51.006;18.224;2023-03-23T09:24:14;9.20;;;3.50;;
57321;SDS011;43159;51.006;18.224;2023-03-23T09:33:57;10.20;;;4.40;;
57321;SDS011;43159;51.006;18.224;2023-03-23T09:43:59;8.00;;;2.70;;
57321;SDS011;43159;51.006;18.224;2023-03-23T09:54:31;10.80;;;3.80;;
57321;SDS011;43159;51.006;18.224;2023-03-23T10:04:39;9.50;;;3.20;;
57321;SDS011;43159;51.006;18.224;2023-03-23T10:25:19;13.00;;;2.80;;
57321;SDS011;43159;51.006;18.224;2023-03-23T10:35:42;9.60;;;2.50;;
57321;SDS011;43159;51.006;18.224;2023-03-23T10:56:23;1.90;;;1.00;;
57321;SDS011;43159;51.006;18.224;2023-03-23T11:06:42;8.60;;;2.20;;
57321;SDS011;43159;51.006;18.224;2023-03-23T11:16:54;8.70;;;2.80;;
57321;SDS011;43159;51.006;18.224;2023-03-23T11:26:46;5.80;;;1.60;;
57321;SDS011;43159;51.006;18.224;2023-03-23T11:57:21;9.60;;;2.40;;
57321;SDS011;43159;51.006;18.224;2023-03-23T12:07:27;13.80;;;1.90;;
57321;SDS011;43159;51.006;18.224;2023-03-23T12:59:59;6.80;;;2.00;;
57321;SDS011;43159;51.006;18.224;2023-03-23T13:10:33;8.00;;;2.10;;
57321;SDS011;43159;51.006;18.224;2023-03-23T13:30:57;7.80;;;2.30;;
57321;SDS011;43159;51.006;18.224;2023-03-23T13:40:50;7.00;;;2.10;;
57321;SDS011;43159;51.006;18.224;2023-03-23T13:51:25;5.30;;;2.20;;
57321;SDS011;43159;51.006;18.224;2023-03-23T14:01:38;5.90;;;2.30;;
57321;SDS011;43159;51.006;18.224;2023-03-23T14:11:32;10.20;;;2.10;;
57321;SDS011;43159;51.006;18.224;2023-03-23T14:21:41;7.30;;;2.10;;
57321;SDS011;43159;51.006;18.224;2023-03-23T14:31:28;8.40;;;2.30;;
57321;SDS011;43159;51.006;18.224;2023-03-23T14:41:29;6.10;;;2.00;;
57321;SDS011;43159;51.006;18.224;2023-03-23T14:51:19;6.10;;;2.20;;
57321;SDS011;43159;51.006;18.224;2023-03-23T15:01:13;5.70;;;1.90;;
57321;SDS011;43159;51.006;18.224;2023-03-23T15:11:09;7.20;;;2.50;;
57321;SDS011;43159;51.006;18.224;2023-03-23T15:21:19;9.90;;;3.10;;
57321;SDS011;43159;51.006;18.224;2023-03-23T15:31:30;7.80;;;2.30;;
57321;SDS011;43159;51.006;18.224;2023-03-23T15:41:21;9.00;;;2.90;;
57321;SDS011;43159;51.006;18.224;2023-03-23T15:51:15;9.40;;;2.80;;
57321;SDS011;43159;51.006;18.224;2023-03-23T16:01:00;9.30;;;2.80;;
57321;SDS011;43159;51.006;18.224;2023-03-23T16:11:14;12.50;;;4.60;;
57321;SDS011;43159;51.006;18.224;2023-03-23T16:21:06;15.40;;;5.40;;
57321;SDS011;43159;51.006;18.224;2023-03-23T16:30:48;9.90;;;3.10;;
57321;SDS011;43159;51.006;18.224;2023-03-23T16:40:31;13.00;;;4.00;;
57321;SDS011;43159;51.006;18.224;2023-03-23T16:50:15;12.10;;;5.00;;
57321;SDS011;43159;51.006;18.224;2023-03-23T17:00:12;11.00;;;5.30;;
57321;SDS011;43159;51.006;18.224;2023-03-23T17:10:04;12.60;;;3.40;;
57321;SDS011;43159;51.006;18.224;2023-03-23T17:19:48;17.90;;;3.90;;
57321;SDS011;43159;51.006;18.224;2023-03-23T17:29:31;17.00;;;5.50;;
57321;SDS011;43159;51.006;18.224;2023-03-23T17:39:13;27.30;;;4.60;;
57321;SDS011;43159;51.006;18.224;2023-03-23T17:56:12;14.60;;;4.40;;
57321;SDS011;43159;51.006;18.224;2023-03-23T18:06:00;11.20;;;3.60;;
57321;SDS011;43159;51.006;18.224;2023-03-23T18:15:44;11.90;;;4.40;;
57321;SDS011;43159;51.006;18.224;2023-03-23T18:25:29;8.70;;;2.50;;
57321;SDS011;43159;51.006;18.224;2023-03-23T18:35:11;7.90;;;2.30;;
57321;SDS011;43159;51.006;18.224;2023-03-23T18:45:10;5.70;;;2.10;;
57321;SDS011;43159;51.006;18.224;2023-03-23T18:55:04;8.50;;;3.30;;
57321;SDS011;43159;51.006;18.224;2023-03-23T19:05:05;6.10;;;2.40;;
57321;SDS011;43159;51.006;18.224;2023-03-23T19:14:56;8.70;;;2.60;;
57321;SDS011;43159;51.006;18.224;2023-03-23T19:25:06;8.10;;;1.90;;
57321;SDS011;43159;51.006;18.224;2023-03-23T19:35:06;10.00;;;2.80;;
57321;SDS011;43159;51.006;18.224;2023-03-23T19:44:51;6.20;;;2.00;;
57321;SDS011;43159;51.006;18.224;2023-03-23T19:54:33;8.70;;;2.40;;
57321;SDS011;43159;51.006;18.224;2023-03-23T20:04:18;16.40;;;2.70;;
57321;SDS011;43159;51.006;18.224;2023-03-23T20:14:04;12.90;;;4.60;;
57321;SDS011;43159;51.006;18.224;2023-03-23T20:23:47;9.40;;;2.80;;
57321;SDS011;43159;51.006;18.224;2023-03-23T20:33:35;9.60;;;3.50;;
57321;SDS011;43159;51.006;18.224;2023-03-23T20:43:23;9.50;;;2.80;;
57321;SDS011;43159;51.006;18.224;2023-03-23T20:53:14;10.70;;;4.00;;
57321;SDS011;43159;51.006;18.224;2023-03-23T21:02:56;11.90;;;3.50;;
57321;SDS011;43159;51.006;18.224;2023-03-23T21:12:39;13.10;;;3.90;;
57321;SDS011;43159;51.006;18.224;2023-03-23T21:22:25;13.20;;;4.20;;
57321;SDS011;43159;51.006;18.224;2023-03-23T21:32:09;10.40;;;3.40;;
57321;SDS011;43159;51.006;18.224;2023-03-23T21:41:52;10.50;;;3.70;;
57321;SDS011;43159;51.006;18.224;2023-03-23T21:51:38;10.80;;;3.90;;
57321;SDS011;43159;51.006;18.224;2023-03-23T22:01:21;13.50;;;4.50;;
57321;SDS011;43159;51.006;18.224;2023-03-23T22:11:09;8.80;;;2.70;;
57321;SDS011;43159;51.006;18.224;2023-03-23T22:20:54;9.30;;;2.70;;
57321;SDS011;43159;51.006;18.224;2023-03-23T22:30:37;9.20;;;2.60;;
57321;SDS011;43159;51.006;18.224;2023-03-23T22:40:20;9.80;;;3.00;;
57321;SDS011;43159;51.006;18.224;2023-03-23T22:50:06;9.40;;;3.20;;
57321;SDS011;43159;51.006;18.224;2023-03-23T22:59:55;9.60;;;3.00;;
57321;SDS011;43159;51.006;18.224;2023-03-23T23:09:41;9.40;;;3.50;;
57321;SDS011;43159;51.006;18.224;2023-03-23T23:19:25;6.00;;;2.20;;
57321;SDS011;43159;51.006;18.224;2023-03-23T23:29:10;10.30;;;3.30;;
57321;SDS011;43159;51.006;18.224;2023-03-23T23:38:54;8.80;;;2.90;;
57321;SDS011;43159;51.006;18.224;2023-03-23T23:48:38;10.50;;;3.80;;
57321;SDS011;43159;51.006;18.224;2023-03-23T23:58:24;9.70;;;3.40;;
